<?xml version="1.0" encoding="UTF-8" standalone="no" ?>
<gpx xmlns="http://www.topografix.com/GPX/1/1" xmlns:xsi="http://www.w3.org/2001/XMLSchema-instance" xsi:schemaLocation="http://www.topografix.com/GPX/1/1 http://www.topografix.com/GPX/1/1/gpx.xsd" version="1.1" creator="VisuGPX - https://www.visugpx.com">
  <metadata>
    <name>Balade</name>
    <desc><![CDATA[essai de transfer de tracé en itinéraire]]></desc>
  </metadata>
  <trk>
    <name><![CDATA[Tracé actuel: 30 MARS 2013 06:51]]></name>
    <trkseg>
      <trkpt lat="49.07496" lon="7.13536">
        <ele>277.48</ele>
        <time>2013-03-30T04:51:01Z</time>
      </trkpt>
      <trkpt lat="49.07518" lon="7.13533">
        <ele>275.56</ele>
        <time>2013-03-30T04:51:25Z</time>
      </trkpt>
      <trkpt lat="49.07533" lon="7.13544">
        <ele>270.75</ele>
        <time>2013-03-30T04:51:37Z</time>
      </trkpt>
      <trkpt lat="49.07534" lon="7.13544">
        <ele>270.27</ele>
        <time>2013-03-30T04:51:38Z</time>
      </trkpt>
      <trkpt lat="49.07537" lon="7.13545">
        <ele>266.42</ele>
        <time>2013-03-30T04:51:40Z</time>
      </trkpt>
      <trkpt lat="49.07539" lon="7.13547">
        <ele>262.58</ele>
        <time>2013-03-30T04:51:42Z</time>
      </trkpt>
      <trkpt lat="49.07542" lon="7.13548">
        <ele>259.69</ele>
        <time>2013-03-30T04:51:44Z</time>
      </trkpt>
      <trkpt lat="49.07544" lon="7.1355">
        <ele>255.85</ele>
        <time>2013-03-30T04:51:46Z</time>
      </trkpt>
      <trkpt lat="49.07548" lon="7.13551">
        <ele>252.48</ele>
        <time>2013-03-30T04:51:48Z</time>
      </trkpt>
      <trkpt lat="49.07551" lon="7.13552">
        <ele>249.6</ele>
        <time>2013-03-30T04:51:50Z</time>
      </trkpt>
      <trkpt lat="49.07555" lon="7.13554">
        <ele>247.2</ele>
        <time>2013-03-30T04:51:53Z</time>
      </trkpt>
      <trkpt lat="49.07557" lon="7.13555">
        <ele>243.83</ele>
        <time>2013-03-30T04:51:55Z</time>
      </trkpt>
      <trkpt lat="49.07561" lon="7.13558">
        <ele>239.99</ele>
        <time>2013-03-30T04:51:58Z</time>
      </trkpt>
      <trkpt lat="49.07565" lon="7.13561">
        <ele>236.62</ele>
        <time>2013-03-30T04:52:02Z</time>
      </trkpt>
      <trkpt lat="49.07566" lon="7.13562">
        <ele>236.14</ele>
        <time>2013-03-30T04:52:03Z</time>
      </trkpt>
      <trkpt lat="49.07569" lon="7.13565">
        <ele>232.78</ele>
        <time>2013-03-30T04:52:06Z</time>
      </trkpt>
      <trkpt lat="49.07574" lon="7.1357">
        <ele>228.93</ele>
        <time>2013-03-30T04:52:11Z</time>
      </trkpt>
      <trkpt lat="49.07575" lon="7.1357">
        <ele>228.93</ele>
        <time>2013-03-30T04:52:12Z</time>
      </trkpt>
      <trkpt lat="49.0758" lon="7.13574">
        <ele>225.57</ele>
        <time>2013-03-30T04:52:17Z</time>
      </trkpt>
      <trkpt lat="49.0759" lon="7.13581">
        <ele>222.2</ele>
        <time>2013-03-30T04:52:25Z</time>
      </trkpt>
      <trkpt lat="49.07595" lon="7.13582">
        <ele>220.76</ele>
        <time>2013-03-30T04:52:29Z</time>
      </trkpt>
      <trkpt lat="49.07608" lon="7.13588">
        <ele>217.4</ele>
        <time>2013-03-30T04:52:38Z</time>
      </trkpt>
      <trkpt lat="49.07628" lon="7.136">
        <ele>213.55</ele>
        <time>2013-03-30T04:52:53Z</time>
      </trkpt>
      <trkpt lat="49.07662" lon="7.13616">
        <ele>211.63</ele>
        <time>2013-03-30T04:53:16Z</time>
      </trkpt>
      <trkpt lat="49.0769" lon="7.13619">
        <ele>210.19</ele>
        <time>2013-03-30T04:53:35Z</time>
      </trkpt>
      <trkpt lat="49.07729" lon="7.13621">
        <ele>209.22</ele>
        <time>2013-03-30T04:54:00Z</time>
      </trkpt>
      <trkpt lat="49.07738" lon="7.13622">
        <ele>209.7</ele>
        <time>2013-03-30T04:54:19Z</time>
      </trkpt>
      <trkpt lat="49.07741" lon="7.13621">
        <ele>209.22</ele>
        <time>2013-03-30T04:54:24Z</time>
      </trkpt>
      <trkpt lat="49.0775" lon="7.13614">
        <ele>209.22</ele>
        <time>2013-03-30T04:54:32Z</time>
      </trkpt>
      <trkpt lat="49.07785" lon="7.13584">
        <ele>209.22</ele>
        <time>2013-03-30T04:55:00Z</time>
      </trkpt>
      <trkpt lat="49.07812" lon="7.13576">
        <ele>210.19</ele>
        <time>2013-03-30T04:55:25Z</time>
      </trkpt>
      <trkpt lat="49.07809" lon="7.13577">
        <ele>209.7</ele>
        <time>2013-03-30T04:55:45Z</time>
      </trkpt>
      <trkpt lat="49.07844" lon="7.13563">
        <ele>209.7</ele>
        <time>2013-03-30T04:56:12Z</time>
      </trkpt>
      <trkpt lat="49.07861" lon="7.13561">
        <ele>209.7</ele>
        <time>2013-03-30T04:56:36Z</time>
      </trkpt>
      <trkpt lat="49.07897" lon="7.13547">
        <ele>208.74</ele>
        <time>2013-03-30T04:57:02Z</time>
      </trkpt>
      <trkpt lat="49.07923" lon="7.13526">
        <ele>208.74</ele>
        <time>2013-03-30T04:57:25Z</time>
      </trkpt>
      <trkpt lat="49.07924" lon="7.1352">
        <ele>208.74</ele>
        <time>2013-03-30T04:57:30Z</time>
      </trkpt>
      <trkpt lat="49.07927" lon="7.13496">
        <ele>209.7</ele>
        <time>2013-03-30T04:57:52Z</time>
      </trkpt>
      <trkpt lat="49.07926" lon="7.13494">
        <ele>209.7</ele>
        <time>2013-03-30T04:57:57Z</time>
      </trkpt>
      <trkpt lat="49.07926" lon="7.13485">
        <ele>209.22</ele>
        <time>2013-03-30T04:58:02Z</time>
      </trkpt>
      <trkpt lat="49.0794" lon="7.13443">
        <ele>211.63</ele>
        <time>2013-03-30T04:58:27Z</time>
      </trkpt>
      <trkpt lat="49.07963" lon="7.13414">
        <ele>214.51</ele>
        <time>2013-03-30T04:58:51Z</time>
      </trkpt>
      <trkpt lat="49.0797" lon="7.134">
        <ele>215.47</ele>
        <time>2013-03-30T04:59:00Z</time>
      </trkpt>
      <trkpt lat="49.07974" lon="7.13392">
        <ele>215.95</ele>
        <time>2013-03-30T04:59:05Z</time>
      </trkpt>
      <trkpt lat="49.07985" lon="7.13366">
        <ele>217.88</ele>
        <time>2013-03-30T04:59:22Z</time>
      </trkpt>
      <trkpt lat="49.07999" lon="7.13346">
        <ele>220.28</ele>
        <time>2013-03-30T04:59:46Z</time>
      </trkpt>
      <trkpt lat="49.08" lon="7.13344">
        <ele>220.76</ele>
        <time>2013-03-30T04:59:52Z</time>
      </trkpt>
      <trkpt lat="49.08032" lon="7.13319">
        <ele>220.76</ele>
        <time>2013-03-30T05:00:20Z</time>
      </trkpt>
      <trkpt lat="49.08044" lon="7.13313">
        <ele>220.28</ele>
        <time>2013-03-30T05:00:32Z</time>
      </trkpt>
      <trkpt lat="49.08076" lon="7.13302">
        <ele>220.28</ele>
        <time>2013-03-30T05:00:56Z</time>
      </trkpt>
      <trkpt lat="49.08116" lon="7.13278">
        <ele>221.72</ele>
        <time>2013-03-30T05:01:24Z</time>
      </trkpt>
      <trkpt lat="49.08146" lon="7.13261">
        <ele>221.72</ele>
        <time>2013-03-30T05:01:49Z</time>
      </trkpt>
      <trkpt lat="49.0818" lon="7.13249">
        <ele>220.76</ele>
        <time>2013-03-30T05:02:14Z</time>
      </trkpt>
      <trkpt lat="49.08213" lon="7.13234">
        <ele>219.8</ele>
        <time>2013-03-30T05:02:38Z</time>
      </trkpt>
      <trkpt lat="49.08243" lon="7.13218">
        <ele>220.28</ele>
        <time>2013-03-30T05:03:01Z</time>
      </trkpt>
      <trkpt lat="49.08265" lon="7.1321">
        <ele>220.76</ele>
        <time>2013-03-30T05:03:26Z</time>
      </trkpt>
      <trkpt lat="49.08302" lon="7.13193">
        <ele>221.24</ele>
        <time>2013-03-30T05:03:54Z</time>
      </trkpt>
      <trkpt lat="49.08343" lon="7.13171">
        <ele>221.24</ele>
        <time>2013-03-30T05:04:25Z</time>
      </trkpt>
      <trkpt lat="49.08371" lon="7.13154">
        <ele>221.24</ele>
        <time>2013-03-30T05:04:47Z</time>
      </trkpt>
      <trkpt lat="49.08412" lon="7.13123">
        <ele>221.72</ele>
        <time>2013-03-30T05:05:19Z</time>
      </trkpt>
      <trkpt lat="49.08452" lon="7.13087">
        <ele>224.12</ele>
        <time>2013-03-30T05:05:51Z</time>
      </trkpt>
      <trkpt lat="49.08484" lon="7.13049">
        <ele>226.53</ele>
        <time>2013-03-30T05:06:22Z</time>
      </trkpt>
      <trkpt lat="49.08502" lon="7.13021">
        <ele>228.45</ele>
        <time>2013-03-30T05:06:49Z</time>
      </trkpt>
      <trkpt lat="49.08514" lon="7.12973">
        <ele>229.41</ele>
        <time>2013-03-30T05:07:17Z</time>
      </trkpt>
      <trkpt lat="49.08491" lon="7.12956">
        <ele>231.81</ele>
        <time>2013-03-30T05:07:40Z</time>
      </trkpt>
      <trkpt lat="49.08455" lon="7.12934">
        <ele>234.22</ele>
        <time>2013-03-30T05:08:11Z</time>
      </trkpt>
      <trkpt lat="49.08416" lon="7.12911">
        <ele>236.14</ele>
        <time>2013-03-30T05:08:43Z</time>
      </trkpt>
      <trkpt lat="49.08379" lon="7.12891">
        <ele>238.06</ele>
        <time>2013-03-30T05:09:12Z</time>
      </trkpt>
      <trkpt lat="49.0834" lon="7.12865">
        <ele>239.51</ele>
        <time>2013-03-30T05:09:43Z</time>
      </trkpt>
      <trkpt lat="49.08294" lon="7.12841">
        <ele>240.95</ele>
        <time>2013-03-30T05:10:17Z</time>
      </trkpt>
      <trkpt lat="49.08251" lon="7.12822">
        <ele>242.87</ele>
        <time>2013-03-30T05:10:49Z</time>
      </trkpt>
      <trkpt lat="49.08231" lon="7.12818">
        <ele>243.35</ele>
        <time>2013-03-30T05:11:03Z</time>
      </trkpt>
      <trkpt lat="49.08225" lon="7.12814">
        <ele>243.83</ele>
        <time>2013-03-30T05:11:08Z</time>
      </trkpt>
      <trkpt lat="49.08204" lon="7.12831">
        <ele>245.75</ele>
        <time>2013-03-30T05:11:32Z</time>
      </trkpt>
      <trkpt lat="49.082" lon="7.12851">
        <ele>244.31</ele>
        <time>2013-03-30T05:11:51Z</time>
      </trkpt>
      <trkpt lat="49.0818" lon="7.12909">
        <ele>242.87</ele>
        <time>2013-03-30T05:12:18Z</time>
      </trkpt>
      <trkpt lat="49.08161" lon="7.12971">
        <ele>241.43</ele>
        <time>2013-03-30T05:12:45Z</time>
      </trkpt>
      <trkpt lat="49.08142" lon="7.13006">
        <ele>241.43</ele>
        <time>2013-03-30T05:13:09Z</time>
      </trkpt>
      <trkpt lat="49.0812" lon="7.13042">
        <ele>241.43</ele>
        <time>2013-03-30T05:13:30Z</time>
      </trkpt>
      <trkpt lat="49.08093" lon="7.13071">
        <ele>241.91</ele>
        <time>2013-03-30T05:13:55Z</time>
      </trkpt>
      <trkpt lat="49.08091" lon="7.13074">
        <ele>242.39</ele>
        <time>2013-03-30T05:13:57Z</time>
      </trkpt>
      <trkpt lat="49.08084" lon="7.13071">
        <ele>242.39</ele>
        <time>2013-03-30T05:14:02Z</time>
      </trkpt>
      <trkpt lat="49.08075" lon="7.13067">
        <ele>243.35</ele>
        <time>2013-03-30T05:14:08Z</time>
      </trkpt>
      <trkpt lat="49.08034" lon="7.13088">
        <ele>244.79</ele>
        <time>2013-03-30T05:14:40Z</time>
      </trkpt>
      <trkpt lat="49.07999" lon="7.1311">
        <ele>244.31</ele>
        <time>2013-03-30T05:15:07Z</time>
      </trkpt>
      <trkpt lat="49.07956" lon="7.13146">
        <ele>242.39</ele>
        <time>2013-03-30T05:15:40Z</time>
      </trkpt>
      <trkpt lat="49.07922" lon="7.1317">
        <ele>240.47</ele>
        <time>2013-03-30T05:16:05Z</time>
      </trkpt>
      <trkpt lat="49.07884" lon="7.1319">
        <ele>238.06</ele>
        <time>2013-03-30T05:16:32Z</time>
      </trkpt>
      <trkpt lat="49.0785" lon="7.13156">
        <ele>239.51</ele>
        <time>2013-03-30T05:17:00Z</time>
      </trkpt>
      <trkpt lat="49.07818" lon="7.13165">
        <ele>240.47</ele>
        <time>2013-03-30T05:17:25Z</time>
      </trkpt>
      <trkpt lat="49.07779" lon="7.13182">
        <ele>240.95</ele>
        <time>2013-03-30T05:17:54Z</time>
      </trkpt>
      <trkpt lat="49.07762" lon="7.13194">
        <ele>240.47</ele>
        <time>2013-03-30T05:18:08Z</time>
      </trkpt>
      <trkpt lat="49.07756" lon="7.13195">
        <ele>240.47</ele>
        <time>2013-03-30T05:18:13Z</time>
      </trkpt>
      <trkpt lat="49.07733" lon="7.13203">
        <ele>240.47</ele>
        <time>2013-03-30T05:18:36Z</time>
      </trkpt>
      <trkpt lat="49.07711" lon="7.13211">
        <ele>239.99</ele>
        <time>2013-03-30T05:18:56Z</time>
      </trkpt>
      <trkpt lat="49.07678" lon="7.13215">
        <ele>239.02</ele>
        <time>2013-03-30T05:19:20Z</time>
      </trkpt>
      <trkpt lat="49.07645" lon="7.13223">
        <ele>238.06</ele>
        <time>2013-03-30T05:19:44Z</time>
      </trkpt>
      <trkpt lat="49.07643" lon="7.13284">
        <ele>236.14</ele>
        <time>2013-03-30T05:20:14Z</time>
      </trkpt>
      <trkpt lat="49.07645" lon="7.13319">
        <ele>234.22</ele>
        <time>2013-03-30T05:20:44Z</time>
      </trkpt>
      <trkpt lat="49.07647" lon="7.13371">
        <ele>230.85</ele>
        <time>2013-03-30T05:21:09Z</time>
      </trkpt>
      <trkpt lat="49.07649" lon="7.1341">
        <ele>228.45</ele>
        <time>2013-03-30T05:21:28Z</time>
      </trkpt>
      <trkpt lat="49.07648" lon="7.13421">
        <ele>227.49</ele>
        <time>2013-03-30T05:21:33Z</time>
      </trkpt>
      <trkpt lat="49.07623" lon="7.13459">
        <ele>226.53</ele>
        <time>2013-03-30T05:21:58Z</time>
      </trkpt>
      <trkpt lat="49.076" lon="7.13465">
        <ele>224.61</ele>
        <time>2013-03-30T05:22:18Z</time>
      </trkpt>
      <trkpt lat="49.07574" lon="7.13486">
        <ele>223.16</ele>
        <time>2013-03-30T05:22:45Z</time>
      </trkpt>
      <trkpt lat="49.07577" lon="7.13507">
        <ele>223.16</ele>
        <time>2013-03-30T05:23:01Z</time>
      </trkpt>
      <trkpt lat="49.07603" lon="7.1352">
        <ele>221.72</ele>
        <time>2013-03-30T05:23:22Z</time>
      </trkpt>
      <trkpt lat="49.07639" lon="7.13519">
        <ele>219.32</ele>
        <time>2013-03-30T05:23:48Z</time>
      </trkpt>
      <trkpt lat="49.07657" lon="7.13527">
        <ele>217.88</ele>
        <time>2013-03-30T05:24:02Z</time>
      </trkpt>
      <trkpt lat="49.07662" lon="7.13565">
        <ele>214.99</ele>
        <time>2013-03-30T05:24:23Z</time>
      </trkpt>
      <trkpt lat="49.07664" lon="7.13607">
        <ele>212.11</ele>
        <time>2013-03-30T05:24:43Z</time>
      </trkpt>
      <trkpt lat="49.07635" lon="7.13607">
        <ele>213.07</ele>
        <time>2013-03-30T05:25:01Z</time>
      </trkpt>
      <trkpt lat="49.07602" lon="7.13589">
        <ele>213.55</ele>
        <time>2013-03-30T05:25:25Z</time>
      </trkpt>
      <trkpt lat="49.07565" lon="7.1357">
        <ele>214.51</ele>
        <time>2013-03-30T05:25:51Z</time>
      </trkpt>
      <trkpt lat="49.07529" lon="7.13549">
        <ele>216.43</ele>
        <time>2013-03-30T05:26:20Z</time>
      </trkpt>
      <trkpt lat="49.07503" lon="7.13544">
        <ele>219.32</ele>
        <time>2013-03-30T05:26:44Z</time>
      </trkpt>
      <trkpt lat="49.07493" lon="7.13549">
        <ele>219.8</ele>
        <time>2013-03-30T05:27:11Z</time>
      </trkpt>
      <trkpt lat="49.07489" lon="7.13551">
        <ele>219.8</ele>
        <time>2013-03-30T05:27:31Z</time>
      </trkpt>
    </trkseg>
  </trk>
</gpx>